createdAt,value
2018-09-12T00:00:27.886Z,101386.27
2018-09-12T00:02:57.551Z,101382.84
2018-09-12T00:05:27.510Z,101384.55
2018-09-12T00:07:57.039Z,101379.39
2018-09-12T00:10:26.785Z,101362.69
2018-09-12T00:12:56.905Z,101363.78
2018-09-12T00:15:26.507Z,101365.25
2018-09-12T00:17:56.518Z,101366.38
2018-09-12T00:20:26.173Z,101364.42
2018-09-12T00:22:56.151Z,101360.02
2018-09-12T00:25:25.709Z,101356.34
2018-09-12T00:27:55.328Z,101340.34
2018-09-12T00:30:25.201Z,101342.91
2018-09-12T00:32:54.919Z,101351.11
2018-09-12T00:35:24.815Z,101358.20
2018-09-12T00:37:54.508Z,101352.60
2018-09-12T00:40:24.148Z,101361.40
2018-09-12T00:42:57.827Z,101351.63
2018-09-12T00:45:32.657Z,101349.66
2018-09-12T00:48:05.833Z,101346.99
2018-09-12T00:50:40.284Z,101349.19
2018-09-12T00:53:12.631Z,101348.34
2018-09-12T00:55:42.542Z,101347.09
2018-09-12T00:58:15.001Z,101351.24
2018-09-12T01:00:46.878Z,101351.61
2018-09-12T01:03:19.160Z,101356.02
2018-09-12T01:05:50.854Z,101354.31
2018-09-12T01:08:22.976Z,101345.39
2018-09-12T01:10:57.089Z,101355.17
2018-09-12T01:13:30.726Z,101354.19
2018-09-12T01:16:03.217Z,101354.16
2018-09-12T01:18:35.738Z,101351.36
2018-09-12T01:21:11.280Z,101361.77
2018-09-12T01:23:42.511Z,101377.65
2018-09-12T01:26:14.830Z,101379.25
2018-09-12T01:28:48.414Z,101380.13
2018-09-12T01:31:18.660Z,101377.68
2018-09-12T01:33:50.232Z,101383.17
2018-09-12T01:36:23.482Z,101379.98
2018-09-12T01:38:54.309Z,101377.52
2018-09-12T01:41:25.377Z,101379.25
2018-09-12T01:43:56.706Z,101387.33
2018-09-12T01:46:26.679Z,101383.91
2018-09-12T01:48:57.958Z,101372.77
2018-09-12T01:51:31.849Z,101378.02
2018-09-12T01:54:04.688Z,101375.11
2018-09-12T01:56:36.283Z,101369.22
2018-09-12T01:59:11.191Z,101368.75
2018-09-12T02:01:46.699Z,101372.05
2018-09-12T02:04:21.248Z,101366.78
2018-09-12T02:06:55.323Z,101361.77
2018-09-12T02:09:29.764Z,101362.23
2018-09-12T02:12:03.036Z,101357.73
2018-09-12T02:14:37.160Z,101341.32
2018-09-12T02:17:09.084Z,101342.44
2018-09-12T02:19:39.560Z,101342.06
2018-09-12T02:22:15.287Z,101347.22
2018-09-12T02:24:48.659Z,101352.09
2018-09-12T02:27:20.035Z,101346.12
2018-09-12T02:29:50.166Z,101349.05
2018-09-12T02:32:23.350Z,101349.41
2018-09-12T02:34:55.748Z,101334.36
2018-09-12T02:37:28.449Z,101323.02
2018-09-12T02:40:00.174Z,101313.59
2018-09-12T02:42:29.872Z,101306.38
2018-09-12T02:45:03.260Z,101285.45
2018-09-12T02:47:36.767Z,101293.17
2018-09-12T02:50:12.708Z,101302.45
2018-09-12T02:52:46.485Z,101305.99
2018-09-12T02:55:19.678Z,101305.27
2018-09-12T02:57:51.682Z,101306.47
2018-09-12T03:00:24.359Z,101304.06
2018-09-12T03:02:58.579Z,101296.84
2018-09-12T03:05:34.085Z,101291.59
2018-09-12T03:08:06.045Z,101289.62
2018-09-12T03:10:39.838Z,101287.42
2018-09-12T03:13:14.268Z,101283.89
2018-09-12T03:15:47.474Z,101276.44
2018-09-12T03:18:21.330Z,101291.11
2018-09-12T03:20:53.965Z,101304.19
2018-09-12T03:23:24.797Z,101305.91
2018-09-12T03:26:02.177Z,101312.01
2018-09-12T03:28:34.192Z,101322.39
2018-09-12T03:31:07.970Z,101319.97
2018-09-12T03:33:41.701Z,101314.81
2018-09-12T03:36:17.499Z,101320.08
2018-09-12T03:38:47.697Z,101331.81
2018-09-12T03:41:22.020Z,101320.81
2018-09-12T03:43:55.895Z,101322.05
2018-09-12T03:46:30.427Z,101318.73
2018-09-12T03:49:04.420Z,101308.58
2018-09-12T03:51:39.379Z,101296.35
2018-09-12T03:54:12.172Z,101297.69
2018-09-12T03:56:42.880Z,101285.72
2018-09-12T03:59:13.013Z,101270.71
2018-09-12T04:01:47.817Z,101272.41
2018-09-12T04:04:21.435Z,101276.07
2018-09-12T04:06:56.485Z,101280.96
2018-09-12T04:09:28.946Z,101279.02
2018-09-12T04:11:58.678Z,101274.98
2018-09-12T04:14:32.302Z,101284.39
2018-09-12T04:17:02.992Z,101289.41
2018-09-12T04:19:36.735Z,101295.13
2018-09-12T04:22:06.403Z,101296.23
2018-09-12T04:24:40.771Z,101286.83
2018-09-12T04:27:11.054Z,101276.45
2018-09-12T04:29:44.332Z,101272.03
2018-09-12T04:32:19.222Z,101265.20
2018-09-12T04:34:52.788Z,101270.83
2018-09-12T04:37:28.725Z,101281.20
2018-09-12T04:40:14.046Z,101293.67
2018-09-12T04:42:44.968Z,101310.56
2018-09-12T04:45:14.639Z,101299.42
2018-09-12T04:47:46.097Z,101301.02
2018-09-12T04:50:21.806Z,101311.65
2018-09-12T04:52:53.802Z,101323.74
2018-09-12T04:55:27.390Z,101318.98
2018-09-12T04:57:58.499Z,101317.01
2018-09-12T05:00:28.557Z,101333.42
2018-09-12T05:02:58.358Z,101325.09
2018-09-12T05:05:33.291Z,101344.89
2018-09-12T05:08:05.753Z,101339.63
2018-09-12T05:10:35.971Z,101345.77
2018-09-12T05:13:07.277Z,101342.11
2018-09-12T05:15:38.099Z,101338.80
2018-09-12T05:18:08.364Z,101344.91
2018-09-12T05:20:41.858Z,101352.36
2018-09-12T05:23:14.503Z,101357.39
2018-09-12T05:25:47.760Z,101339.77
2018-09-12T05:28:20.258Z,101345.63
2018-09-12T05:30:52.100Z,101347.95
2018-09-12T05:33:27.185Z,101352.48
2018-09-12T05:36:01.320Z,101354.20
2018-09-12T05:38:31.748Z,101353.94
2018-09-12T05:41:02.076Z,101351.62
2018-09-12T05:43:33.452Z,101353.33
2018-09-12T05:46:06.528Z,101348.08
2018-09-12T05:48:40.171Z,101340.11
2018-09-12T05:51:15.121Z,101345.27
2018-09-12T05:53:45.614Z,101335.23
2018-09-12T05:56:15.523Z,101317.73
2018-09-12T05:58:44.898Z,101322.89
2018-09-12T06:01:14.277Z,101331.20
2018-09-12T06:03:44.348Z,101319.09
2018-09-12T06:06:13.668Z,101322.99
2018-09-12T06:08:43.038Z,101313.31
2018-09-12T06:11:14.109Z,101314.16
2018-09-12T06:13:43.514Z,101313.05
2018-09-12T06:16:12.763Z,101310.48
2018-09-12T06:18:42.167Z,101316.10
2018-09-12T06:21:11.461Z,101324.64
2018-09-12T06:23:40.847Z,101311.97
2018-09-12T06:26:10.783Z,101310.58
2018-09-12T06:28:40.102Z,101302.78
2018-09-12T06:31:09.409Z,101307.53
2018-09-12T06:33:39.400Z,101309.72
2018-09-12T06:36:08.831Z,101322.44
2018-09-12T06:38:38.315Z,101311.30
2018-09-12T06:41:09.311Z,101326.38
2018-09-12T06:43:39.627Z,101321.80
2018-09-12T06:46:08.982Z,101320.94
2018-09-12T06:48:38.967Z,101323.02
2018-09-12T06:51:08.395Z,101320.80
2018-09-12T06:53:37.940Z,101332.56
2018-09-12T06:56:08.327Z,101332.75
2018-09-12T06:58:37.586Z,101334.48
2018-09-12T07:01:07.505Z,101338.11
2018-09-12T07:03:36.901Z,101329.19
2018-09-12T07:06:06.201Z,101351.11
2018-09-12T07:08:35.674Z,101332.51
2018-09-12T07:11:05.718Z,101329.91
2018-09-12T07:13:35.005Z,101346.19
2018-09-12T07:16:04.424Z,101343.36
2018-09-12T07:18:33.890Z,101335.13
2018-09-12T07:21:04.056Z,101338.89
2018-09-12T07:23:33.450Z,101345.55
2018-09-12T07:26:02.939Z,101348.68
2018-09-12T07:28:32.407Z,101356.86
2018-09-12T07:31:01.823Z,101347.42
2018-09-12T07:33:31.321Z,101348.47
2018-09-12T07:36:00.858Z,101354.58
2018-09-12T07:38:30.563Z,101363.02
2018-09-12T07:40:59.974Z,101372.45
2018-09-12T07:43:29.354Z,101383.50
2018-09-12T07:45:58.902Z,101375.83
2018-09-12T07:48:28.483Z,101392.30
2018-09-12T07:50:58.009Z,101398.44
2018-09-12T07:53:27.527Z,101398.23
2018-09-12T07:55:57.831Z,101399.70
2018-09-12T07:58:27.416Z,101421.02
2018-09-12T08:00:57.048Z,101424.90
2018-09-12T08:03:26.601Z,101429.66
2018-09-12T08:05:56.272Z,101413.77
2018-09-12T08:08:25.841Z,101410.46
2018-09-12T08:10:56.528Z,101420.50
2018-09-12T08:13:26.037Z,101425.73
2018-09-12T08:15:55.374Z,101442.17
2018-09-12T08:18:24.796Z,101429.84
2018-09-12T08:20:54.419Z,101432.15
2018-09-12T08:23:24.299Z,101432.89
2018-09-12T08:25:53.911Z,101436.91
2018-09-12T08:28:23.371Z,101443.02
2018-09-12T08:30:54.874Z,101463.12
2018-09-12T08:33:24.636Z,101463.10
2018-09-12T08:35:54.088Z,101471.92
2018-09-12T08:38:23.639Z,101472.42
2018-09-12T08:40:53.009Z,101478.04
2018-09-12T08:43:22.804Z,101471.92
2018-09-12T08:45:52.294Z,101480.80
2018-09-12T08:48:21.807Z,101485.71
2018-09-12T08:50:52.140Z,101492.44
2018-09-12T08:53:21.865Z,101491.67
2018-09-12T08:55:51.315Z,101491.67
2018-09-12T08:58:20.685Z,101491.82
2018-09-12T09:00:49.987Z,101485.45
2018-09-12T09:03:20.333Z,101494.52
2018-09-12T09:05:50.601Z,101500.27
2018-09-12T09:08:19.896Z,101497.08
2018-09-12T09:10:49.288Z,101498.92
2018-09-12T09:13:19.626Z,101501.54
2018-09-12T09:15:48.947Z,101503.98
2018-09-12T09:18:18.340Z,101508.62
2018-09-12T09:20:47.588Z,101509.73
2018-09-12T09:23:16.874Z,101520.86
2018-09-12T09:25:46.227Z,101525.41
2018-09-12T09:28:15.518Z,101517.55
2018-09-12T09:30:44.819Z,101516.57
2018-09-12T09:33:14.327Z,101512.18
2018-09-12T09:35:43.751Z,101508.89
2018-09-12T09:38:12.841Z,101519.65
2018-09-12T09:40:42.642Z,101524.56
2018-09-12T09:43:11.977Z,101531.78
2018-09-12T09:45:41.346Z,101518.54
2018-09-12T09:48:10.694Z,101526.62
2018-09-12T09:50:39.825Z,101537.89
2018-09-12T09:53:09.126Z,101537.77
2018-09-12T09:55:38.573Z,101545.45
2018-09-12T09:58:07.887Z,101544.84
2018-09-12T10:00:43.866Z,101539.95
2018-09-12T10:03:18.309Z,101545.95
2018-09-12T10:05:52.973Z,101555.87
2018-09-12T10:08:27.706Z,101554.27
2018-09-12T10:10:57.906Z,101539.85
2018-09-12T10:13:27.412Z,101543.41
2018-09-12T10:15:57.430Z,101551.00
2018-09-12T10:18:26.937Z,101549.40
2018-09-12T10:20:56.442Z,101557.73
2018-09-12T10:23:26.283Z,101547.08
2018-09-12T10:25:56.505Z,101542.54
2018-09-12T10:28:26.356Z,101535.30
2018-09-12T10:30:55.801Z,101553.08
2018-09-12T10:33:25.984Z,101551.84
2018-09-12T10:35:55.465Z,101552.34
2018-09-12T10:38:24.823Z,101550.84
2018-09-12T10:40:54.864Z,101553.27
2018-09-12T10:43:24.358Z,101563.25
2018-09-12T10:45:53.744Z,101553.45
2018-09-12T10:48:24.291Z,101574.01
2018-09-12T10:50:54.473Z,101565.65
2018-09-12T10:53:24.197Z,101565.18
2018-09-12T10:55:55.449Z,101573.61
2018-09-12T10:58:24.921Z,101576.34
2018-09-12T11:00:54.478Z,101578.43
2018-09-12T11:03:24.975Z,101579.02
2018-09-12T11:05:54.533Z,101569.59
2018-09-12T11:08:24.275Z,101577.32
2018-09-12T11:10:54.240Z,101575.98
2018-09-12T11:13:23.606Z,101557.97
2018-09-12T11:15:53.237Z,101555.46
2018-09-12T11:18:22.802Z,101557.14
2018-09-12T11:20:52.758Z,101561.05
2018-09-12T11:23:22.178Z,101576.20
2018-09-12T11:25:52.259Z,101580.55
2018-09-12T11:28:21.605Z,101587.82
2018-09-12T11:30:50.973Z,101597.14
2018-09-12T11:33:20.248Z,101599.18
2018-09-12T11:35:49.528Z,101606.05
2018-09-12T11:38:19.110Z,101616.04
2018-09-12T11:40:50.309Z,101608.52
2018-09-12T11:43:20.099Z,101616.97
2018-09-12T11:45:49.413Z,101618.34
2018-09-12T11:48:18.657Z,101605.36
2018-09-12T11:50:48.021Z,101620.16
2018-09-12T11:53:17.244Z,101612.17
2018-09-12T11:55:47.414Z,101610.66
2018-09-12T11:58:16.777Z,101617.92
2018-09-12T12:00:46.106Z,101614.44
2018-09-12T12:03:16.152Z,101609.89
2018-09-12T12:05:46.000Z,101608.52
2018-09-12T12:08:15.304Z,101616.48
2018-09-12T12:10:45.312Z,101627.96
2018-09-12T12:13:14.551Z,101625.95
2018-09-12T12:15:43.930Z,101635.52
2018-09-12T12:18:17.315Z,101633.19
2018-09-12T12:20:46.597Z,101629.98
2018-09-12T12:23:15.934Z,101633.22
2018-09-12T12:25:46.850Z,101631.61
2018-09-12T12:28:16.231Z,101628.41
2018-09-12T12:30:45.861Z,101630.39
2018-09-12T12:33:15.674Z,101623.95
2018-09-12T12:35:44.898Z,101631.16
2018-09-12T12:38:14.141Z,101629.85
2018-09-12T12:40:43.478Z,101631.59
2018-09-12T12:43:12.875Z,101629.86
2018-09-12T12:45:42.195Z,101625.98
2018-09-12T12:48:12.382Z,101628.05
2018-09-12T12:50:41.605Z,101642.33
2018-09-12T12:53:10.869Z,101655.92
2018-09-12T12:55:41.096Z,101649.33
2018-09-12T12:58:10.313Z,101646.72
2018-09-12T13:00:39.541Z,101646.13
2018-09-12T13:03:09.465Z,101640.37
2018-09-12T13:05:38.810Z,101637.47
2018-09-12T13:08:08.233Z,101649.55
2018-09-12T13:10:38.332Z,101647.89
2018-09-12T13:13:07.690Z,101656.80
2018-09-12T13:15:37.062Z,101661.25
2018-09-12T13:18:07.469Z,101655.63
2018-09-12T13:20:36.785Z,101670.25
2018-09-12T13:23:06.193Z,101669.88
2018-09-12T13:25:35.910Z,101659.32
2018-09-12T13:28:06.124Z,101663.53
2018-09-12T13:30:35.482Z,101660.10
2018-09-12T13:33:05.140Z,101665.63
2018-09-12T13:35:34.423Z,101665.73
2018-09-12T13:38:03.753Z,101667.31
2018-09-12T13:40:33.453Z,101666.09
2018-09-12T13:43:02.907Z,101670.02
2018-09-12T13:45:32.677Z,101666.36
2018-09-12T13:48:02.260Z,101672.24
2018-09-12T13:50:31.673Z,101670.19
2018-09-12T13:53:01.198Z,101675.84
2018-09-12T13:55:30.629Z,101673.41
2018-09-12T13:58:00.169Z,101673.98
2018-09-12T14:00:31.978Z,101674.48
2018-09-12T14:03:03.071Z,101664.19
2018-09-12T14:05:33.235Z,101683.67
2018-09-12T14:08:02.687Z,101688.70
2018-09-12T14:10:32.201Z,101699.98
2018-09-12T14:13:01.733Z,101699.48
2018-09-12T14:15:31.346Z,101689.78
2018-09-12T14:18:00.980Z,101662.96
2018-09-12T14:20:30.349Z,101683.41
2018-09-12T14:22:59.988Z,101696.81
2018-09-12T14:25:31.483Z,101691.30
2018-09-12T14:28:00.809Z,101679.52
2018-09-12T14:30:30.345Z,101688.96
2018-09-12T14:32:59.787Z,101683.19
2018-09-12T14:35:29.538Z,101683.55
2018-09-12T14:37:59.220Z,101688.33
2018-09-12T14:40:30.473Z,101688.56
2018-09-12T14:42:59.933Z,101688.70
2018-09-12T14:45:29.442Z,101691.99
2018-09-12T14:47:59.427Z,101707.33
2018-09-12T14:50:29.303Z,101711.97
2018-09-12T14:52:58.605Z,101696.53
2018-09-12T14:55:28.337Z,101711.71
2018-09-12T14:57:57.962Z,101708.03
2018-09-12T15:00:29.478Z,101706.44
2018-09-12T15:02:59.634Z,101705.95
2018-09-12T15:05:29.211Z,101701.15
2018-09-12T15:07:58.890Z,101692.56
2018-09-12T15:10:28.579Z,101705.46
2018-09-12T15:13:02.331Z,101720.56
2018-09-12T15:15:31.937Z,101718.24
2018-09-12T15:18:01.707Z,101720.22
2018-09-12T15:20:32.004Z,101722.29
2018-09-12T15:23:01.408Z,101708.92
2018-09-12T15:25:30.810Z,101721.45
2018-09-12T15:28:00.198Z,101721.08
2018-09-12T15:30:29.805Z,101733.69
2018-09-12T15:32:59.205Z,101728.44
2018-09-12T15:35:29.006Z,101721.70
2018-09-12T15:37:58.833Z,101720.47
2018-09-12T15:40:29.547Z,101714.95
2018-09-12T15:43:13.469Z,101720.06
2018-09-12T15:45:43.183Z,101719.33
2018-09-12T15:48:12.649Z,101721.90
2018-09-12T15:50:42.541Z,101705.48
2018-09-12T15:53:12.081Z,101711.61
2018-09-12T15:55:41.771Z,101719.33
2018-09-12T15:58:11.098Z,101734.02
2018-09-12T16:00:40.332Z,101742.23
2018-09-12T16:03:10.201Z,101728.14
2018-09-12T16:05:39.544Z,101722.52
2018-09-12T16:08:08.825Z,101714.64
2018-09-12T16:10:39.393Z,101720.41
2018-09-12T16:13:09.087Z,101722.73
2018-09-12T16:15:38.371Z,101726.17
2018-09-12T16:18:07.721Z,101724.57
2018-09-12T16:20:36.989Z,101730.73
2018-09-12T16:23:06.414Z,101728.13
2018-09-12T16:25:35.894Z,101732.91
2018-09-12T16:28:05.269Z,101737.56
2018-09-12T16:30:34.569Z,101731.94
2018-09-12T16:33:04.148Z,101732.27
2018-09-12T16:35:33.419Z,101731.17
2018-09-12T16:38:03.054Z,101737.39
2018-09-12T16:40:32.581Z,101736.30
2018-09-12T16:43:02.211Z,101733.60
2018-09-12T16:45:31.720Z,101723.69
2018-09-12T16:48:01.674Z,101727.58
2018-09-12T16:50:31.332Z,101729.16
2018-09-12T16:53:00.878Z,101733.58
2018-09-12T16:55:30.444Z,101737.25
2018-09-12T16:57:59.996Z,101725.22
2018-09-12T17:00:30.177Z,101730.97
2018-09-12T17:02:59.884Z,101736.11
2018-09-12T17:05:29.677Z,101729.63
2018-09-12T17:07:59.608Z,101718.73
2018-09-12T17:10:29.622Z,101720.69
2018-09-12T17:12:59.545Z,101714.56
2018-09-12T17:15:29.405Z,101725.06
2018-09-12T17:17:59.329Z,101737.80
2018-09-12T17:20:31.166Z,101740.11
2018-09-12T17:23:00.764Z,101738.61
2018-09-12T17:25:30.434Z,101751.33
2018-09-12T17:28:00.205Z,101748.36
2018-09-12T17:30:29.659Z,101758.87
2018-09-12T17:32:59.377Z,101757.85
2018-09-12T17:35:29.537Z,101753.45
2018-09-12T17:37:59.464Z,101754.09
2018-09-12T17:40:29.013Z,101758.91
2018-09-12T17:42:58.822Z,101773.70
2018-09-12T17:45:28.492Z,101766.61
2018-09-12T17:47:57.984Z,101759.27
2018-09-12T17:50:27.624Z,101752.37
2018-09-12T17:52:58.500Z,101760.50
2018-09-12T17:55:28.492Z,101755.60
2018-09-12T17:57:58.196Z,101757.97
2018-09-12T18:00:28.210Z,101753.52
2018-09-12T18:02:59.225Z,101760.62
2018-09-12T18:05:29.127Z,101761.48
2018-09-12T18:07:58.949Z,101766.31
2018-09-12T18:10:28.898Z,101763.02
2018-09-12T18:12:59.051Z,101757.39
2018-09-12T18:15:28.928Z,101754.50
2018-09-12T18:17:58.825Z,101760.92
2018-09-12T18:20:28.783Z,101765.94
2018-09-12T18:22:58.501Z,101765.94
2018-09-12T18:25:29.309Z,101783.75
2018-09-12T18:28:00.036Z,101785.28
2018-09-12T18:30:31.281Z,101787.61
2018-09-12T18:33:00.924Z,101787.23
2018-09-12T18:35:31.301Z,101779.23
2018-09-12T18:38:01.090Z,101788.74
2018-09-12T18:40:31.305Z,101793.93
2018-09-12T18:43:01.525Z,101794.98
2018-09-12T18:45:31.043Z,101796.81
2018-09-12T18:48:00.421Z,101798.66
2018-09-12T18:50:29.942Z,101796.63
2018-09-12T18:53:00.022Z,101806.63
2018-09-12T18:55:29.583Z,101809.19
2018-09-12T18:57:59.438Z,101806.55
2018-09-12T19:00:29.073Z,101817.30
2018-09-12T19:02:59.936Z,101814.61
2018-09-12T19:05:31.099Z,101819.09
2018-09-12T19:08:00.819Z,101818.50
2018-09-12T19:10:30.530Z,101815.26
2018-09-12T19:13:01.059Z,101818.43
2018-09-12T19:15:31.630Z,101824.96
2018-09-12T19:18:01.685Z,101831.98
2018-09-12T19:20:31.732Z,101833.19
2018-09-12T19:23:01.339Z,101836.36
2018-09-12T19:25:31.145Z,101837.26
2018-09-12T19:28:00.825Z,101836.14
2018-09-12T19:30:30.980Z,101826.98
2018-09-12T19:33:00.620Z,101823.45
2018-09-12T19:35:30.447Z,101823.37
2018-09-12T19:38:00.132Z,101823.81
2018-09-12T19:40:30.122Z,101822.28
2018-09-12T19:42:59.878Z,101815.41
2018-09-12T19:45:29.536Z,101816.00
2018-09-12T19:47:59.200Z,101820.41
2018-09-12T19:50:29.099Z,101824.77
2018-09-12T19:52:59.137Z,101827.08
2018-09-12T19:55:28.763Z,101819.31
2018-09-12T19:57:58.956Z,101813.56
2018-09-12T20:00:28.936Z,101819.20
2018-09-12T20:02:58.528Z,101825.28
2018-09-12T20:05:28.193Z,101816.76
2018-09-12T20:07:57.888Z,101822.40
2018-09-12T20:10:28.511Z,101824.06
2018-09-12T20:12:58.451Z,101825.14
2018-09-12T20:15:28.214Z,101822.45
2018-09-12T20:17:58.884Z,101818.05
2018-09-12T20:20:28.653Z,101815.77
2018-09-12T20:22:58.745Z,101817.86
2018-09-12T20:25:30.225Z,101821.70
2018-09-12T20:27:59.800Z,101816.87
2018-09-12T20:30:29.582Z,101824.44
2018-09-12T20:33:00.701Z,101816.27
2018-09-12T20:35:30.761Z,101812.92
2018-09-12T20:38:00.396Z,101822.51
2018-09-12T20:40:30.351Z,101830.75
2018-09-12T20:43:00.084Z,101828.55
2018-09-12T20:45:29.952Z,101821.27
2018-09-12T20:47:59.506Z,101821.75
2018-09-12T20:50:29.092Z,101826.64
2018-09-12T20:52:59.000Z,101826.48
2018-09-12T20:55:29.713Z,101820.73
2018-09-12T20:58:00.357Z,101826.70
2018-09-12T21:00:30.069Z,101833.70
2018-09-12T21:02:59.766Z,101829.02
2018-09-12T21:05:30.083Z,101826.52
2018-09-12T21:07:59.733Z,101824.64
2018-09-12T21:10:30.431Z,101831.19
2018-09-12T21:13:01.059Z,101825.89
2018-09-12T21:15:30.482Z,101829.64
2018-09-12T21:18:01.685Z,101839.52
2018-09-12T21:20:31.009Z,101842.80
2018-09-12T21:23:00.562Z,101842.05
2018-09-12T21:25:30.729Z,101852.09
2018-09-12T21:28:01.260Z,101850.37
2018-09-12T21:30:30.913Z,101849.24
2018-09-12T21:33:00.631Z,101859.77
2018-09-12T21:35:30.122Z,101859.77
2018-09-12T21:38:06.162Z,101860.63
2018-09-12T21:40:35.687Z,101865.94
2018-09-12T21:43:05.048Z,101866.20
2018-09-12T21:45:34.655Z,101861.74
2018-09-12T21:48:04.031Z,101861.64
2018-09-12T21:50:34.026Z,101866.52
2018-09-12T21:53:05.049Z,101872.75
2018-09-12T21:55:35.083Z,101871.89
2018-09-12T21:58:04.749Z,101866.14
2018-09-12T22:00:34.607Z,101867.66
2018-09-12T22:03:03.991Z,101876.08
2018-09-12T22:05:33.408Z,101867.55
2018-09-12T22:08:03.482Z,101874.84
2018-09-12T22:10:32.883Z,101870.72
2018-09-12T22:13:02.326Z,101873.78
2018-09-12T22:15:32.205Z,101868.62
2018-09-12T22:18:03.321Z,101874.78
2018-09-12T22:20:33.488Z,101877.63
2018-09-12T22:23:03.030Z,101871.69
2018-09-12T22:25:32.585Z,101868.83
2018-09-12T22:28:02.924Z,101861.91
2018-09-12T22:30:32.252Z,101864.05
2018-09-12T22:33:01.813Z,101866.25
2018-09-12T22:35:31.432Z,101863.08
2018-09-12T22:38:00.941Z,101852.94
2018-09-12T22:40:30.630Z,101853.11
2018-09-12T22:43:00.204Z,101858.09
2018-09-12T22:45:29.761Z,101863.87
2018-09-12T22:47:59.303Z,101856.58
2018-09-12T22:50:29.202Z,101854.59
2018-09-12T22:52:58.668Z,101860.50
2018-09-12T22:55:28.076Z,101862.70
2018-09-12T22:57:57.849Z,101861.95
2018-09-12T23:00:27.619Z,101867.31
2018-09-12T23:02:57.144Z,101855.82
2018-09-12T23:05:27.448Z,101862.15
2018-09-12T23:07:56.874Z,101854.00
2018-09-12T23:10:26.378Z,101854.69
2018-09-12T23:12:55.907Z,101847.98
2018-09-12T23:15:27.385Z,101850.55
2018-09-12T23:17:57.158Z,101847.97
2018-09-12T23:20:26.662Z,101845.84
2018-09-12T23:22:56.105Z,101854.47
2018-09-12T23:25:25.484Z,101854.56
2018-09-12T23:29:19.247Z,101852.73
2018-09-12T23:31:48.668Z,101850.92
2018-09-12T23:34:18.447Z,101852.36
2018-09-12T23:36:47.812Z,101852.83
2018-09-12T23:39:17.099Z,101846.60
2018-09-12T23:41:46.409Z,101846.50
2018-09-12T23:44:15.738Z,101839.05
2018-09-12T23:46:45.033Z,101839.14
2018-09-12T23:49:14.328Z,101837.20
2018-09-12T23:51:44.446Z,101837.41
2018-09-12T23:54:13.780Z,101837.60
2018-09-12T23:56:43.133Z,101838.16
2018-09-12T23:59:12.347Z,101836.22
